Winchcomb, United Kingdom
Current Conditions -  °F | °C
As of 6:20 PM on Friday 31 Oct 2014 (Local Time) from EGBJ Reporting Station
Clear Clear  
Wind Chill: 64°   Ceiling: Unl
Heat Index: 64°   Visibility: 6mi
Dew Point: 57°   Wind: 13mph
Humidity: 77%   Direction: 150°SSE
Pressure: 29.88"   Gusts: NA
Location:  51.95°N, 1.97°W
Report Text: EGBJ 311820Z 15011KT CAVOK 18/14 Q1012
Loading
Personal Weather Stations






























Interactive Weather Map
Tropical Storm Tracking
New forecast layout! Learn more

10-Day Weather Forecast

Advertisements
Track Severe Weather on mobile